East Maine, NY

6:59 PM EDT on May 26, 2017 (GMT -0400)
Farm to Market Road | | Change Station

Elev 1411 ft 42.17 °N, 76.02 °W | Updated 31 seconds ago

Overcast
Overcast
59.5 °F
Feels Like 59.5 °F
N
5.3
Wind Variable Wind from WSW

Today
High -- | Low -- °F
--% Chance of Precip.
Yesterday
High -- | Low -- °F
Precip. -- in
Pressure 29.78 in
Visibility 10.0 miles
Clouds Few 600 ft
Mostly Cloudy 1100 ft
Overcast 1600 ft
Dew Point 56 °F
Humidity 88%
Rainfall 0.02 in
Snow Depth Not available.
5:33 AM 8:29 PM
New Moon, 2% visible
METAR KBGM 262253Z 35011KT 10SM FEW006 BKN011 OVC016 13/12 A2978 RMK AO2 RAB06E40 CIG 007V013 SLP082 P0000 T01330122
Pressure 29.78 in
Visibility 10.0 miles
Clouds Few 600 ft
Mostly Cloudy 1100 ft
Overcast 1600 ft
Dew Point 56 °F
Humidity 88%
Rainfall 0.02 in
Snow Depth Not available.
5:33 AM 8:29 PM
New Moon, 2% visible
METAR KBGM 262253Z 35011KT 10SM FEW006 BKN011 OVC016 13/12 A2978 RMK AO2 RAB06E40 CIG 007V013 SLP082 P0000 T01330122

Get Severe Weather Alerts

Thanks for signing up!

Be on the lookout for a verification email in your inbox.

You'll start receiving the daily forecast at 6 AM.

×

10-Day Weather Forecast

Almanac

Astronomy

May. 26, 2017 Rise Set
Actual Time
Civil Twilight
Nautical Twilight
Astronomical Twilight
Moon
Length of Visible Light
Length of Day
Tomorrow will be .
, % of the Moon is Illuminated

Today's Extremes

State Highs State Lows

Community

WunderPhotos

Category 6

Welcome to Category 6. This is the collective home for Weather Underground's featured writeups by Dr. Jeff Masters (right), Bob Henson (left), Chris Burt, and other regular contributors.

Nearby

Air Quality

  Air Quality AQ Index Pollutant
Not available.

Snow Depth

Station Depth Elevation

Earthquake Activity

City Distance Mag. Time & Date
Minimum magnitude displayed is 2.5.

Coastal Water Temperatures

Place Temperature

Stations

Nearby Weather Stations

Station Location Temp. Windchill Dew Point Humidity Wind Precip. Elev Updated Type
                   

Watches & Warnings

There are currently no watches in effect.